Airfield :
LOGIN :

Register | Disclaimer

   EN    FR    IT 

 










Legend :    VFR   Marginal VFR   IFR   Intensive IFR   Very Intensive IFR
Visi :
Ceiling :
>= 8 km
>= 3000ft
5 to 8 km
1000 to 3000 ft
1500m to 5 km
500 to 1000 ft
800 to 1500m
200 to 500 ft
< 800m
< 200 ft
Symbols :   Thunderstorms  Fog  Heavy snow  Heavy precipitations  Wind > 20 kt
SIGMETs :     Misc.  Thunderstorms  Icing  Turbulence  Mountain Waves  Volcanic Ashes







- Airport Elevation : 1278 ft
- IATA code : QRT


LIQN - Rieti

EXPIRED METARs :
  • 261750Z VRB03KT 6000 RA FEW005 BKN025 14/13 Q1010

TAF N/A
No reported NOTAMs for that airfield.
2 SIGMETs reported for the Roma FIR (LIRR) :
 
Embedded thunderstorms
LIRR SIGMET 12 VALID 262040/262240 LIIB
LIRR ROMA FIR EMBD TS FCST WI N4116 E01455 - N4112 E01422 - N3628 E01457 - N3631 E01852 - N3855 E01855 - N3852 E01736 - N3855 E01634 - N4116 E01455 TOP FL380 STNR NC=
Severe turbulence
LIRR SIGMET 11 VALID 262030/262230 LIIB
LIRR ROMA FIR SEV TURB FCST WI N4016 E00756 - N4015 E01330 - N3628 E01447 - N3627 E01128 - N3730 E01126 - N3900 E00755 - N4016 E00756 FL240/360 STNR NC=



MET'MAP, your aeronautical weather chart ! - Copyright ORBIFLY December 2007 - Disclaimer

ORBIFLY MET'MAP TEAM :

Programming & Development : Alexandra Zaïnal
Concept & Development : Baudouin d'Aumeries
Co-Development & Prog : Marc-Olivier Méhu
Technical & hardware support : Manuel Goepfert

Contact : metmap@orbifly.com




SOURCES & CREDITS :

   NOAA